sensor_id;sensor_type;location;lat;lon;timestamp;pressure;altitude;pressure_sealevel;temperature;humidity
33404;BME280;19751;40.274;18.268;2023-03-20T00:00:38;101672.56;;;10.97;100.00
33404;BME280;19751;40.274;18.268;2023-03-20T00:03:05;101672.56;;;10.97;100.00
33404;BME280;19751;40.274;18.268;2023-03-20T00:05:31;101670.38;;;11.01;100.00
33404;BME280;19751;40.274;18.268;2023-03-20T00:07:57;101669.84;;;11.05;100.00
33404;BME280;19751;40.274;18.268;2023-03-20T00:10:31;101670.88;;;11.12;100.00
33404;BME280;19751;40.274;18.268;2023-03-20T00:12:58;101664.25;;;11.15;100.00
33404;BME280;19751;40.274;18.268;2023-03-20T00:15:34;101661.75;;;11.13;100.00
33404;BME280;19751;40.274;18.268;2023-03-20T00:18:00;101662.78;;;11.12;100.00
33404;BME280;19751;40.274;18.268;2023-03-20T00:20:26;101653.16;;;11.10;100.00
33404;BME280;19751;40.274;18.268;2023-03-20T00:22:52;101658.22;;;11.05;100.00
33404;BME280;19751;40.274;18.268;2023-03-20T00:25:20;101648.78;;;11.01;100.00
33404;BME280;19751;40.274;18.268;2023-03-20T00:27:47;101648.47;;;10.95;100.00
33404;BME280;19751;40.274;18.268;2023-03-20T00:30:22;101646.44;;;10.89;100.00
33404;BME280;19751;40.274;18.268;2023-03-20T00:32:49;101651.31;;;10.78;100.00
33404;BME280;19751;40.274;18.268;2023-03-20T00:35:23;101641.56;;;10.68;100.00
33404;BME280;19751;40.274;18.268;2023-03-20T00:37:50;101646.59;;;10.55;100.00
33404;BME280;19751;40.274;18.268;2023-03-20T00:40:16;101636.84;;;10.46;100.00
33404;BME280;19751;40.274;18.268;2023-03-20T00:42:44;101639.84;;;10.43;100.00
33404;BME280;19751;40.274;18.268;2023-03-20T00:45:14;101641.38;;;10.37;100.00
33404;BME280;19751;40.274;18.268;2023-03-20T00:47:41;101636.13;;;10.36;100.00
33404;BME280;19751;40.274;18.268;2023-03-20T00:50:16;101630.59;;;10.29;100.00
33404;BME280;19751;40.274;18.268;2023-03-20T00:52:42;101626.66;;;10.24;100.00
33404;BME280;19751;40.274;18.268;2023-03-20T00:55:09;101629.84;;;10.19;100.00
33404;BME280;19751;40.274;18.268;2023-03-20T00:57:39;101624.97;;;10.14;100.00
33404;BME280;19751;40.274;18.268;2023-03-20T01:00:21;101629.50;;;10.14;100.00
33404;BME280;19751;40.274;18.268;2023-03-20T01:02:49;101622.09;;;10.16;100.00
33404;BME280;19751;40.274;18.268;2023-03-20T01:05:15;101616.56;;;10.17;100.00
33404;BME280;19751;40.274;18.268;2023-03-20T01:07:41;101619.09;;;10.19;100.00
33404;BME280;19751;40.274;18.268;2023-03-20T01:10:07;101614.22;;;10.23;100.00
33404;BME280;19751;40.274;18.268;2023-03-20T01:12:32;101614.53;;;10.19;100.00
33404;BME280;19751;40.274;18.268;2023-03-20T01:14:58;101615.72;;;10.17;100.00
33404;BME280;19751;40.274;18.268;2023-03-20T01:17:26;101622.28;;;10.14;100.00
33404;BME280;19751;40.274;18.268;2023-03-20T01:19:52;101615.00;;;10.07;100.00
33404;BME280;19751;40.274;18.268;2023-03-20T01:22:18;101612.47;;;9.97;100.00
33404;BME280;19751;40.274;18.268;2023-03-20T01:24:43;101602.53;;;9.89;100.00
33404;BME280;19751;40.274;18.268;2023-03-20T01:27:15;101594.13;;;9.84;100.00
33404;BME280;19751;40.274;18.268;2023-03-20T01:29:41;101593.91;;;9.78;100.00
33404;BME280;19751;40.274;18.268;2023-03-20T01:32:15;101589.34;;;9.70;100.00
33404;BME280;19751;40.274;18.268;2023-03-20T01:34:41;101590.34;;;9.69;100.00
33404;BME280;19751;40.274;18.268;2023-03-20T01:37:13;101583.47;;;9.66;100.00
33404;BME280;19751;40.274;18.268;2023-03-20T01:39:39;101584.00;;;9.78;100.00
33404;BME280;19751;40.274;18.268;2023-03-20T01:42:06;101574.59;;;9.90;100.00
33404;BME280;19751;40.274;18.268;2023-03-20T01:44:34;101575.97;;;10.03;100.00
33404;BME280;19751;40.274;18.268;2023-03-20T01:47:02;101581.22;;;10.12;100.00
33404;BME280;19751;40.274;18.268;2023-03-20T01:52:40;101571.97;;;10.15;100.00
33404;BME280;19751;40.274;18.268;2023-03-20T01:55:06;101575.00;;;10.12;100.00
33404;BME280;19751;40.274;18.268;2023-03-20T01:57:32;101573.63;;;10.00;100.00
33404;BME280;19751;40.274;18.268;2023-03-20T02:00:08;101575.97;;;9.94;100.00
33404;BME280;19751;40.274;18.268;2023-03-20T02:02:35;101565.03;;;9.88;100.00
33404;BME280;19751;40.274;18.268;2023-03-20T02:05:08;101577.28;;;9.82;100.00
33404;BME280;19751;40.274;18.268;2023-03-20T02:07:35;101574.09;;;9.79;100.00
33404;BME280;19751;40.274;18.268;2023-03-20T02:10:11;101574.94;;;9.79;100.00
33404;BME280;19751;40.274;18.268;2023-03-20T02:12:38;101583.66;;;9.81;100.00
33404;BME280;19751;40.274;18.268;2023-03-20T02:15:05;101579.97;;;9.82;100.00
33404;BME280;19751;40.274;18.268;2023-03-20T02:17:31;101580.47;;;9.78;100.00
33404;BME280;19751;40.274;18.268;2023-03-20T02:40:20;101554.25;;;9.80;100.00
33404;BME280;19751;40.274;18.268;2023-03-20T02:45:29;101552.38;;;9.72;100.00
33404;BME280;19751;40.274;18.268;2023-03-20T02:48:32;101556.06;;;9.71;100.00
33404;BME280;19751;40.274;18.268;2023-03-20T02:53:53;101555.56;;;9.67;100.00
33404;BME280;19751;40.274;18.268;2023-03-20T02:56:31;101558.59;;;9.73;100.00
33404;BME280;19751;40.274;18.268;2023-03-20T02:59:15;101548.84;;;9.71;100.00
33404;BME280;19751;40.274;18.268;2023-03-20T03:01:51;101548.31;;;9.68;100.00
33404;BME280;19751;40.274;18.268;2023-03-20T03:04:25;101548.50;;;9.66;100.00
33404;BME280;19751;40.274;18.268;2023-03-20T03:06:53;101547.63;;;9.66;100.00
33404;BME280;19751;40.274;18.268;2023-03-20T03:09:34;101548.16;;;9.69;100.00
33404;BME280;19751;40.274;18.268;2023-03-20T03:12:09;101546.47;;;9.68;100.00
33404;BME280;19751;40.274;18.268;2023-03-20T03:14:46;101559.75;;;9.70;100.00
33404;BME280;19751;40.274;18.268;2023-03-20T03:17:14;101564.81;;;9.73;100.00
33404;BME280;19751;40.274;18.268;2023-03-20T03:19:45;101566.50;;;9.74;100.00
33404;BME280;19751;40.274;18.268;2023-03-20T03:22:13;101565.34;;;9.77;100.00
33404;BME280;19751;40.274;18.268;2023-03-20T03:24:45;101566.50;;;9.74;100.00
33404;BME280;19751;40.274;18.268;2023-03-20T03:29:46;101576.75;;;9.70;100.00
33404;BME280;19751;40.274;18.268;2023-03-20T03:32:49;101569.16;;;9.66;100.00
33404;BME280;19751;40.274;18.268;2023-03-20T03:35:18;101572.00;;;9.64;100.00
33404;BME280;19751;40.274;18.268;2023-03-20T03:40:46;101562.41;;;9.62;100.00
33404;BME280;19751;40.274;18.268;2023-03-20T03:43:31;101562.41;;;9.62;100.00
33404;BME280;19751;40.274;18.268;2023-03-20T03:46:06;101558.38;;;9.58;100.00
33404;BME280;19751;40.274;18.268;2023-03-20T03:48:38;101552.81;;;9.51;100.00
33404;BME280;19751;40.274;18.268;2023-03-20T03:51:31;101562.03;;;9.49;100.00
33404;BME280;19751;40.274;18.268;2023-03-20T03:54:02;101570.44;;;9.54;100.00
33404;BME280;19751;40.274;18.268;2023-03-20T03:56:31;101570.13;;;9.57;100.00
33404;BME280;19751;40.274;18.268;2023-03-20T03:59:02;101562.25;;;9.55;100.00
33404;BME280;19751;40.274;18.268;2023-03-20T04:01:30;101558.53;;;9.56;100.00
33404;BME280;19751;40.274;18.268;2023-03-20T04:04:03;101567.13;;;9.60;100.00
33404;BME280;19751;40.274;18.268;2023-03-20T04:06:31;101561.25;;;9.64;100.00
33404;BME280;19751;40.274;18.268;2023-03-20T04:08:57;101559.94;;;9.68;100.00
33404;BME280;19751;40.274;18.268;2023-03-20T04:11:25;101565.13;;;9.70;100.00
33404;BME280;19751;40.274;18.268;2023-03-20T04:13:52;101557.59;;;9.74;100.00
33404;BME280;19751;40.274;18.268;2023-03-20T04:16:19;101557.25;;;9.77;100.00
33404;BME280;19751;40.274;18.268;2023-03-20T04:18:48;101556.59;;;9.83;100.00
33404;BME280;19751;40.274;18.268;2023-03-20T04:21:13;101558.81;;;9.87;100.00
33404;BME280;19751;40.274;18.268;2023-03-20T04:23:40;101549.88;;;9.95;100.00
33404;BME280;19751;40.274;18.268;2023-03-20T04:26:06;101553.59;;;10.02;100.00
33404;BME280;19751;40.274;18.268;2023-03-20T04:28:32;101551.59;;;10.04;100.00
33404;BME280;19751;40.274;18.268;2023-03-20T04:31:00;101558.00;;;10.11;100.00
33404;BME280;19751;40.274;18.268;2023-03-20T04:33:26;101557.84;;;10.21;100.00
33404;BME280;19751;40.274;18.268;2023-03-20T04:35:52;101546.44;;;10.27;100.00
33404;BME280;19751;40.274;18.268;2023-03-20T04:38:18;101557.06;;;10.37;100.00
33404;BME280;19751;40.274;18.268;2023-03-20T04:40:46;101547.13;;;10.45;100.00
33404;BME280;19751;40.274;18.268;2023-03-20T04:43:12;101543.56;;;10.53;100.00
33404;BME280;19751;40.274;18.268;2023-03-20T04:45:38;101544.06;;;10.57;100.00
33404;BME280;19751;40.274;18.268;2023-03-20T04:48:04;101546.75;;;10.57;100.00
33404;BME280;19751;40.274;18.268;2023-03-20T04:50:29;101545.91;;;10.56;100.00
33404;BME280;19751;40.274;18.268;2023-03-20T04:52:55;101544.25;;;10.55;100.00
33404;BME280;19751;40.274;18.268;2023-03-20T04:55:20;101543.56;;;10.53;100.00
33404;BME280;19751;40.274;18.268;2023-03-20T04:57:47;101538.34;;;10.52;100.00
33404;BME280;19751;40.274;18.268;2023-03-20T05:00:13;101540.38;;;10.50;100.00
33404;BME280;19751;40.274;18.268;2023-03-20T05:02:38;101540.38;;;10.50;100.00
33404;BME280;19751;40.274;18.268;2023-03-20T05:05:04;101544.91;;;10.49;100.00
33404;BME280;19751;40.274;18.268;2023-03-20T05:07:30;101546.44;;;10.52;100.00
33404;BME280;19751;40.274;18.268;2023-03-20T05:09:57;101546.25;;;10.53;100.00
33404;BME280;19751;40.274;18.268;2023-03-20T05:12:23;101549.81;;;10.54;100.00
33404;BME280;19751;40.274;18.268;2023-03-20T05:14:49;101546.25;;;10.53;100.00
33404;BME280;19751;40.274;18.268;2023-03-20T05:17:15;101538.84;;;10.55;100.00
33404;BME280;19751;40.274;18.268;2023-03-20T05:19:42;101543.06;;;10.58;100.00
33404;BME280;19751;40.274;18.268;2023-03-20T05:22:08;101552.31;;;10.63;100.00
33404;BME280;19751;40.274;18.268;2023-03-20T05:24:34;101547.25;;;10.68;100.00
33404;BME280;19751;40.274;18.268;2023-03-20T05:27:00;101548.44;;;10.74;100.00
33404;BME280;19751;40.274;18.268;2023-03-20T05:29:25;101551.47;;;10.79;100.00
33404;BME280;19751;40.274;18.268;2023-03-20T05:31:51;101551.09;;;10.82;100.00
33404;BME280;19751;40.274;18.268;2023-03-20T05:34:16;101559.53;;;10.87;100.00
33404;BME280;19751;40.274;18.268;2023-03-20T05:36:42;101555.13;;;10.94;100.00
33404;BME280;19751;40.274;18.268;2023-03-20T05:39:07;101552.91;;;10.98;100.00
33404;BME280;19751;40.274;18.268;2023-03-20T05:41:33;101557.44;;;11.06;100.00
33404;BME280;19751;40.274;18.268;2023-03-20T05:43:58;101558.59;;;11.11;100.00
33404;BME280;19751;40.274;18.268;2023-03-20T05:46:24;101549.53;;;11.12;100.00
33404;BME280;19751;40.274;18.268;2023-03-20T05:48:50;101547.31;;;11.16;100.00
33404;BME280;19751;40.274;18.268;2023-03-20T05:51:15;101556.06;;;11.18;100.00
33404;BME280;19751;40.274;18.268;2023-03-20T05:53:41;101556.06;;;11.18;100.00
33404;BME280;19751;40.274;18.268;2023-03-20T05:56:07;101563.13;;;11.19;100.00
33404;BME280;19751;40.274;18.268;2023-03-20T05:58:32;101567.84;;;11.25;100.00
33404;BME280;19751;40.274;18.268;2023-03-20T06:00:59;101573.56;;;11.30;100.00
33404;BME280;19751;40.274;18.268;2023-03-20T06:03:25;101579.25;;;11.35;100.00
33404;BME280;19751;40.274;18.268;2023-03-20T06:05:50;101575.06;;;11.41;100.00
33404;BME280;19751;40.274;18.268;2023-03-20T06:08:16;101571.81;;;11.45;100.00
33404;BME280;19751;40.274;18.268;2023-03-20T06:10:41;101567.22;;;11.54;100.00
33404;BME280;19751;40.274;18.268;2023-03-20T06:13:07;101564.50;;;11.62;100.00
33404;BME280;19751;40.274;18.268;2023-03-20T06:15:32;101569.84;;;11.70;100.00
33404;BME280;19751;40.274;18.268;2023-03-20T06:17:58;101562.72;;;11.78;100.00
33404;BME280;19751;40.274;18.268;2023-03-20T06:20:25;101559.16;;;11.85;100.00
33404;BME280;19751;40.274;18.268;2023-03-20T06:22:53;101551.00;;;11.93;100.00
33404;BME280;19751;40.274;18.268;2023-03-20T06:25:19;101556.34;;;12.02;100.00
33404;BME280;19751;40.274;18.268;2023-03-20T06:27:46;101555.66;;;12.08;100.00
33404;BME280;19751;40.274;18.268;2023-03-20T06:30:13;101556.59;;;12.15;100.00
33404;BME280;19751;40.274;18.268;2023-03-20T06:32:39;101553.19;;;12.21;100.00
33404;BME280;19751;40.274;18.268;2023-03-20T06:35:05;101555.00;;;12.29;100.00
33404;BME280;19751;40.274;18.268;2023-03-20T06:37:32;101551.75;;;12.33;100.00
33404;BME280;19751;40.274;18.268;2023-03-20T06:39:57;101556.81;;;12.36;100.00
33404;BME280;19751;40.274;18.268;2023-03-20T06:42:23;101552.31;;;12.43;100.00
33404;BME280;19751;40.274;18.268;2023-03-20T06:44:48;101550.78;;;12.49;100.00
33404;BME280;19751;40.274;18.268;2023-03-20T06:47:14;101554.41;;;12.56;100.00
33404;BME280;19751;40.274;18.268;2023-03-20T06:49:40;101547.25;;;12.63;100.00
33404;BME280;19751;40.274;18.268;2023-03-20T06:52:05;101544.00;;;12.68;100.00
33404;BME280;19751;40.274;18.268;2023-03-20T06:54:31;101546.00;;;12.74;100.00
33404;BME280;19751;40.274;18.268;2023-03-20T06:56:57;101552.72;;;12.78;100.00
33404;BME280;19751;40.274;18.268;2023-03-20T06:59:22;101558.03;;;12.86;100.00
33404;BME280;19751;40.274;18.268;2023-03-20T07:01:48;101556.44;;;12.92;100.00
33404;BME280;19751;40.274;18.268;2023-03-20T07:04:13;101563.63;;;13.00;100.00
33404;BME280;19751;40.274;18.268;2023-03-20T07:06:39;101563.53;;;13.08;100.00
33404;BME280;19751;40.274;18.268;2023-03-20T07:09:04;101564.84;;;13.12;100.00
33404;BME280;19751;40.274;18.268;2023-03-20T07:11:31;101566.81;;;13.18;100.00
33404;BME280;19751;40.274;18.268;2023-03-20T07:13:58;101569.84;;;13.23;100.00
33404;BME280;19751;40.274;18.268;2023-03-20T07:16:25;101564.50;;;13.30;100.00
33404;BME280;19751;40.274;18.268;2023-03-20T07:18:50;101561.44;;;13.33;100.00
33404;BME280;19751;40.274;18.268;2023-03-20T07:21:18;101557.53;;;13.35;100.00
33404;BME280;19751;40.274;18.268;2023-03-20T07:23:44;101564.03;;;13.41;100.00
33404;BME280;19751;40.274;18.268;2023-03-20T07:26:10;101570.56;;;13.47;100.00
33404;BME280;19751;40.274;18.268;2023-03-20T07:28:35;101569.81;;;13.53;100.00
33404;BME280;19751;40.274;18.268;2023-03-20T07:31:01;101561.59;;;13.61;100.00
33404;BME280;19751;40.274;18.268;2023-03-20T07:33:26;101567.06;;;13.67;100.00
33404;BME280;19751;40.274;18.268;2023-03-20T07:35:52;101562.78;;;13.73;100.00
33404;BME280;19751;40.274;18.268;2023-03-20T07:38:18;101560.34;;;13.78;100.00
33404;BME280;19751;40.274;18.268;2023-03-20T07:40:44;101561.91;;;13.87;100.00
33404;BME280;19751;40.274;18.268;2023-03-20T07:43:10;101562.44;;;13.98;100.00
33404;BME280;19751;40.274;18.268;2023-03-20T07:45:35;101547.91;;;14.05;100.00
33404;BME280;19751;40.274;18.268;2023-03-20T07:48:01;101546.13;;;14.12;100.00
33404;BME280;19751;40.274;18.268;2023-03-20T07:50:26;101546.19;;;14.19;100.00
33404;BME280;19751;40.274;18.268;2023-03-20T07:52:53;101552.50;;;14.26;100.00
33404;BME280;19751;40.274;18.268;2023-03-20T07:55:18;101551.06;;;14.30;100.00
33404;BME280;19751;40.274;18.268;2023-03-20T07:57:44;101555.28;;;14.33;100.00
33404;BME280;19751;40.274;18.268;2023-03-20T08:00:12;101549.06;;;14.39;100.00
33404;BME280;19751;40.274;18.268;2023-03-20T08:02:38;101540.75;;;14.40;100.00
33404;BME280;19751;40.274;18.268;2023-03-20T08:05:03;101537.66;;;14.43;100.00
33404;BME280;19751;40.274;18.268;2023-03-20T08:07:30;101540.78;;;14.47;100.00
33404;BME280;19751;40.274;18.268;2023-03-20T08:09:55;101530.44;;;14.51;100.00
33404;BME280;19751;40.274;18.268;2023-03-20T08:12:21;101541.72;;;14.54;100.00
33404;BME280;19751;40.274;18.268;2023-03-20T08:14:46;101545.09;;;14.56;100.00
33404;BME280;19751;40.274;18.268;2023-03-20T08:17:12;101545.56;;;14.60;100.00
33404;BME280;19751;40.274;18.268;2023-03-20T08:19:38;101537.00;;;14.63;100.00
33404;BME280;19751;40.274;18.268;2023-03-20T08:22:04;101533.31;;;14.71;100.00
33404;BME280;19751;40.274;18.268;2023-03-20T08:24:29;101545.66;;;14.73;100.00
33404;BME280;19751;40.274;18.268;2023-03-20T08:26:55;101547.75;;;14.78;100.00
33404;BME280;19751;40.274;18.268;2023-03-20T08:29:20;101552.53;;;14.76;100.00
33404;BME280;19751;40.274;18.268;2023-03-20T08:31:46;101563.81;;;14.79;100.00
33404;BME280;19751;40.274;18.268;2023-03-20T08:34:12;101558.66;;;14.84;100.00
33404;BME280;19751;40.274;18.268;2023-03-20T08:36:37;101559.91;;;14.88;100.00
33404;BME280;19751;40.274;18.268;2023-03-20T08:39:04;101555.59;;;14.94;100.00
33404;BME280;19751;40.274;18.268;2023-03-20T08:41:31;101549.56;;;14.99;100.00
33404;BME280;19751;40.274;18.268;2023-03-20T08:43:57;101542.06;;;15.01;100.00
33404;BME280;19751;40.274;18.268;2023-03-20T08:46:23;101544.81;;;15.07;100.00
33404;BME280;19751;40.274;18.268;2023-03-20T08:48:48;101544.88;;;15.14;100.00
33404;BME280;19751;40.274;18.268;2023-03-20T08:51:14;101545.94;;;15.20;100.00
33404;BME280;19751;40.274;18.268;2023-03-20T08:53:40;101551.81;;;15.23;100.00
33404;BME280;19751;40.274;18.268;2023-03-20T08:56:06;101557.47;;;15.28;100.00
33404;BME280;19751;40.274;18.268;2023-03-20T08:58:32;101552.09;;;15.35;100.00
33404;BME280;19751;40.274;18.268;2023-03-20T09:01:05;101555.63;;;15.35;100.00
33404;BME280;19751;40.274;18.268;2023-03-20T09:03:30;101552.31;;;15.40;100.00
33404;BME280;19751;40.274;18.268;2023-03-20T09:05:56;101547.94;;;15.46;100.00
33404;BME280;19751;40.274;18.268;2023-03-20T09:08:22;101541.69;;;15.45;100.00
33404;BME280;19751;40.274;18.268;2023-03-20T09:10:47;101543.78;;;15.50;100.00
33404;BME280;19751;40.274;18.268;2023-03-20T09:13:13;101547.16;;;15.58;100.00
33404;BME280;19751;40.274;18.268;2023-03-20T09:15:39;101540.50;;;15.61;100.00
33404;BME280;19751;40.274;18.268;2023-03-20T09:18:05;101534.84;;;15.62;100.00
33404;BME280;19751;40.274;18.268;2023-03-20T09:20:30;101535.31;;;15.66;100.00
33404;BME280;19751;40.274;18.268;2023-03-20T09:22:56;101543.28;;;15.68;100.00
33404;BME280;19751;40.274;18.268;2023-03-20T09:25:21;101527.22;;;15.73;100.00
33404;BME280;19751;40.274;18.268;2023-03-20T09:27:50;101533.28;;;15.81;100.00
33404;BME280;19751;40.274;18.268;2023-03-20T09:30:16;101521.59;;;15.87;97.39
33404;BME280;19751;40.274;18.268;2023-03-20T09:32:41;101523.91;;;15.90;98.47
33404;BME280;19751;40.274;18.268;2023-03-20T09:35:07;101525.59;;;15.98;98.65
33404;BME280;19751;40.274;18.268;2023-03-20T09:37:33;101525.59;;;15.98;98.08
33404;BME280;19751;40.274;18.268;2023-03-20T09:39:58;101521.59;;;16.01;97.52
33404;BME280;19751;40.274;18.268;2023-03-20T09:45:38;101518.28;;;16.12;95.27
33404;BME280;19751;40.274;18.268;2023-03-20T09:48:18;101520.38;;;16.16;95.33
33404;BME280;19751;40.274;18.268;2023-03-20T09:50:57;101521.03;;;16.25;94.74
33404;BME280;19751;40.274;18.268;2023-03-20T09:53:38;101524.59;;;16.32;94.76
33404;BME280;19751;40.274;18.268;2023-03-20T09:56:18;101519.56;;;16.36;93.11
33404;BME280;19751;40.274;18.268;2023-03-20T09:58:51;101528.56;;;16.36;93.21
33404;BME280;19751;40.274;18.268;2023-03-20T10:01:18;101519.34;;;16.37;92.05
33404;BME280;19751;40.274;18.268;2023-03-20T10:04:17;101524.38;;;16.40;90.61
33404;BME280;19751;40.274;18.268;2023-03-20T10:06:43;101529.00;;;16.40;89.21
33404;BME280;19751;40.274;18.268;2023-03-20T10:25:53;101477.53;;;16.52;89.98
33404;BME280;19751;40.274;18.268;2023-03-20T10:28:25;101480.44;;;16.57;88.50
33404;BME280;19751;40.274;18.268;2023-03-20T10:38:55;101481.06;;;16.65;86.35
33404;BME280;19751;40.274;18.268;2023-03-20T10:41:31;101480.44;;;16.70;87.61
33404;BME280;19751;40.274;18.268;2023-03-20T10:43:59;101474.38;;;16.75;86.42
33404;BME280;19751;40.274;18.268;2023-03-20T10:46:40;101473.34;;;16.76;81.54
33404;BME280;19751;40.274;18.268;2023-03-20T10:49:17;101469.16;;;16.73;80.75
33404;BME280;19751;40.274;18.268;2023-03-20T10:51:50;101468.09;;;16.74;82.27
33404;BME280;19751;40.274;18.268;2023-03-20T10:54:23;101467.69;;;16.77;83.95
33404;BME280;19751;40.274;18.268;2023-03-20T10:56:52;101471.66;;;16.81;82.58
33404;BME280;19751;40.274;18.268;2023-03-20T11:01:48;101470.78;;;16.87;82.98
33404;BME280;19751;40.274;18.268;2023-03-20T11:04:14;101468.06;;;16.87;82.36
33404;BME280;19751;40.274;18.268;2023-03-20T11:06:47;101462.22;;;16.90;81.42
33404;BME280;19751;40.274;18.268;2023-03-20T11:09:21;101457.81;;;16.89;80.41
33404;BME280;19751;40.274;18.268;2023-03-20T11:11:50;101463.06;;;16.84;82.01
33404;BME280;19751;40.274;18.268;2023-03-20T11:14:19;101452.59;;;16.88;83.19
33404;BME280;19751;40.274;18.268;2023-03-20T11:16:53;101462.63;;;16.87;82.40
33404;BME280;19751;40.274;18.268;2023-03-20T11:19:20;101456.38;;;16.80;80.78
33404;BME280;19751;40.274;18.268;2023-03-20T11:24:26;101436.69;;;16.78;80.58
33404;BME280;19751;40.274;18.268;2023-03-20T11:27:19;101439.66;;;16.77;83.33
33404;BME280;19751;40.274;18.268;2023-03-20T11:29:49;101430.84;;;16.81;83.69
33404;BME280;19751;40.274;18.268;2023-03-20T11:32:29;101432.09;;;16.85;83.51
33404;BME280;19751;40.274;18.268;2023-03-20T11:34:56;101423.91;;;16.92;84.34
33404;BME280;19751;40.274;18.268;2023-03-20T11:37:28;101421.16;;;16.99;84.28
33404;BME280;19751;40.274;18.268;2023-03-20T11:39:58;101417.38;;;17.00;83.89
33404;BME280;19751;40.274;18.268;2023-03-20T11:42:27;101416.94;;;17.03;81.41
33404;BME280;19751;40.274;18.268;2023-03-20T11:45:02;101413.16;;;17.04;82.18
33404;BME280;19751;40.274;18.268;2023-03-20T11:47:31;101407.31;;;17.07;81.11
33404;BME280;19751;40.274;18.268;2023-03-20T11:50:00;101403.09;;;17.11;80.36
33404;BME280;19751;40.274;18.268;2023-03-20T11:52:34;101407.31;;;17.07;80.47
33404;BME280;19751;40.274;18.268;2023-03-20T11:55:05;101404.34;;;17.08;82.45
33404;BME280;19751;40.274;18.268;2023-03-20T11:57:35;101405.22;;;17.09;82.06
33404;BME280;19751;40.274;18.268;2023-03-20T12:00:20;101402.88;;;17.12;81.31
33404;BME280;19751;40.274;18.268;2023-03-20T12:02:47;101402.88;;;17.12;79.58
33404;BME280;19751;40.274;18.268;2023-03-20T12:07:53;101396.41;;;17.13;76.88
33404;BME280;19751;40.274;18.268;2023-03-20T12:10:24;101397.44;;;17.12;76.79
33404;BME280;19751;40.274;18.268;2023-03-20T12:13:00;101395.09;;;17.16;77.84
33404;BME280;19751;40.274;18.268;2023-03-20T12:15:28;101394.69;;;17.12;78.01
33404;BME280;19751;40.274;18.268;2023-03-20T12:17:57;101393.69;;;17.13;78.86
33404;BME280;19751;40.274;18.268;2023-03-20T12:20:37;101390.53;;;17.10;78.92
33404;BME280;19751;40.274;18.268;2023-03-20T12:23:12;101386.75;;;17.18;79.94
33404;BME280;19751;40.274;18.268;2023-03-20T12:31:31;101379.56;;;17.30;74.45
33404;BME280;19751;40.274;18.268;2023-03-20T12:36:03;101373.28;;;17.29;76.72
33404;BME280;19751;40.274;18.268;2023-03-20T12:38:31;101374.47;;;17.33;77.29
33404;BME280;19751;40.274;18.268;2023-03-20T12:41:25;101367.34;;;17.39;77.17
33404;BME280;19751;40.274;18.268;2023-03-20T12:50:00;101368.59;;;17.36;77.51
33404;BME280;19751;40.274;18.268;2023-03-20T12:52:50;101355.16;;;17.42;77.25
33404;BME280;19751;40.274;18.268;2023-03-20T13:06:22;101344.81;;;17.25;75.29
33404;BME280;19751;40.274;18.268;2023-03-20T13:36:36;101317.84;;;16.79;86.36
33404;BME280;19751;40.274;18.268;2023-03-20T13:41:43;101315.56;;;16.76;87.02
33404;BME280;19751;40.274;18.268;2023-03-20T13:44:18;101310.31;;;16.74;87.02
33404;BME280;19751;40.274;18.268;2023-03-20T13:46:53;101310.94;;;16.70;87.00
33404;BME280;19751;40.274;18.268;2023-03-20T13:49:23;101326.66;;;16.68;88.07
33404;BME280;19751;40.274;18.268;2023-03-20T13:52:02;101319.97;;;16.63;88.75
33404;BME280;19751;40.274;18.268;2023-03-20T14:03:25;101323.78;;;16.49;88.89
33404;BME280;19751;40.274;18.268;2023-03-20T14:05:53;101334.06;;;16.47;89.23
33404;BME280;19751;40.274;18.268;2023-03-20T14:11:07;101325.06;;;16.47;89.47
33404;BME280;19751;40.274;18.268;2023-03-20T14:13:37;101337.19;;;16.44;89.56
33404;BME280;19751;40.274;18.268;2023-03-20T14:16:08;101320.66;;;16.46;89.68
33404;BME280;19751;40.274;18.268;2023-03-20T14:18:35;101320.00;;;16.50;89.24
33404;BME280;19751;40.274;18.268;2023-03-20T14:21:11;101317.28;;;16.57;88.90
33404;BME280;19751;40.274;18.268;2023-03-20T14:23:42;101323.06;;;16.67;88.03
33404;BME280;19751;40.274;18.268;2023-03-20T14:31:38;101337.53;;;16.68;87.47
33404;BME280;19751;40.274;18.268;2023-03-20T14:42:27;101327.16;;;16.45;91.97
33404;BME280;19751;40.274;18.268;2023-03-20T14:53:29;101314.00;;;16.28;89.85
33404;BME280;19751;40.274;18.268;2023-03-20T14:58:51;101317.59;;;16.22;91.27
33404;BME280;19751;40.274;18.268;2023-03-20T15:04:26;101322.19;;;16.08;92.43
33404;BME280;19751;40.274;18.268;2023-03-20T15:09:26;101329.75;;;16.00;94.04
33404;BME280;19751;40.274;18.268;2023-03-20T15:11:59;101325.16;;;15.94;94.76
33404;BME280;19751;40.274;18.268;2023-03-20T15:14:36;101328.94;;;15.93;95.88
33404;BME280;19751;40.274;18.268;2023-03-20T15:17:13;101316.38;;;15.91;96.66
33404;BME280;19751;40.274;18.268;2023-03-20T15:19:40;101317.84;;;15.87;96.94
33404;BME280;19751;40.274;18.268;2023-03-20T15:22:14;101317.84;;;15.87;97.54
33404;BME280;19751;40.274;18.268;2023-03-20T15:24:40;101314.72;;;15.84;97.22
33404;BME280;19751;40.274;18.268;2023-03-20T15:27:10;101314.09;;;15.82;97.98
33404;BME280;19751;40.274;18.268;2023-03-20T15:29:37;101307.63;;;15.76;98.08
33404;BME280;19751;40.274;18.268;2023-03-20T15:32:05;101309.09;;;15.72;98.93